首页
METAR-TAF:

METAR-TAF

机场 :

雅典, 喬治亞, 美国

纬度: 33-57-03N, 经度: 083-19-41W, 海拔: 246米

当前天气观测

该预报发布于1小时和7分钟前的23:51 UTC
风速3节,风向多变
温度 14°C
湿度 63%
气压 1018 hPa
能見度: 16.1公里
天空无云

METAR: KAHN 112351Z VRB03KT 10SM CLR 14/07 A3005 RMK AO2 SLP177 T01390072 10206 20139 55003 $

时间: 19:58 (00:58 UTC)

预报

该预报发布于1小时和24分钟前的23:34 UTC
预报有效从12日的 00点(UTC)到 12日的 24点(UTC)
风速4节,风向南转西南
能見度: 10公里
散云层高于25000英尺
从 12日的 0500点(UTC)
风速3节,风向多变
能見度: 10公里
散云层高于3500英尺
阴天层高于8000英尺
附近有阵雨
从 12日的 0800点(UTC)
风速3节,风向多变
能見度: 8.0公里
散云层高于1500英尺
阴天层高于3000英尺
小阵雨, 轻雾
从 12日的 0900点(UTC)
风速节,风向
能見度: 6.4公里
多云层高于1500英尺
阴天层高于2500英尺
小阵雨, 轻雾
从 12日的 1200点(UTC)
风速8节,风向西转西北
能見度: 4.8公里
阴天层高于1000英尺
雨, 轻雾
从 12日的 1500点(UTC)
风速11节,风向西转西北,有时为15节阵风
能見度: 9.7公里
阴天层高于1800英尺
小阵雨
从 12日的 1800点(UTC)
风速11节,风向西北,有时为19节阵风
能見度: 10公里
散云层高于3000英尺
多云层高于9000英尺

TAF: KAHN 112334Z 1200/1224 20004KT P6SM SCT250 FM120500 VRB03KT P6SM VCSH SCT035 OVC080 FM120800 VRB03KT 5SM -SHRA BR SCT015 OVC030 FM120900 00000KT 4SM -SHRA BR BKN015 OVC025 FM121200 30008KT 3SM RA BR OVC010 FM121500 30011G15KT 6SM -SHRA OVC018 FM121800 32011G19KT P6SM SCT030 BKN090

超过4000个机场的气象观测和天气预报(METAR&TAF报告)。

可查询的气象台以黄色和红色小点在地图上表示。

将鼠标移到小点上方,可查看气象台名称。

然后点击查看天气观测和预报。

如需切换地图:点击带黑十字的绿色按钮放大地图;点击带横线的绿色按钮缩小地图;或者点击绿色箭头查看邻近地区的地图。


METAR-TAF: